createdAt,value
2022-10-07T00:00:27.681Z,22.4
2022-10-07T00:02:44.812Z,22.4
2022-10-07T00:05:01.652Z,22.3
2022-10-07T00:07:17.702Z,22.4
2022-10-07T00:09:33.832Z,22.9
2022-10-07T00:11:50.801Z,22.3
2022-10-07T00:14:07.651Z,22.4
2022-10-07T00:16:24.805Z,22.5
2022-10-07T00:18:40.901Z,22.4
2022-10-07T00:20:57.233Z,22.8
2022-10-07T00:23:14.072Z,22.4
2022-10-07T00:25:31.046Z,22.2
2022-10-07T00:27:47.910Z,22.3
2022-10-07T00:30:04.794Z,22.6
2022-10-07T00:32:21.072Z,22.4
2022-10-07T00:34:37.254Z,22.9
2022-10-07T00:36:38.620Z,22.6
2022-10-07T00:36:53.542Z,22.8
2022-10-07T00:39:09.888Z,22.9
2022-10-07T00:41:26.423Z,22.5
2022-10-07T00:43:42.723Z,22.9
2022-10-07T00:45:59.670Z,22.4
2022-10-07T00:48:16.739Z,22.3
2022-10-07T00:50:33.612Z,22.4
2022-10-07T00:52:50.597Z,22.3
2022-10-07T00:55:07.500Z,22.4
2022-10-07T00:57:24.440Z,22.3
2022-10-07T00:59:41.384Z,22.3
2022-10-07T01:01:58.338Z,22.3
2022-10-07T01:04:14.515Z,22.5
2022-10-07T01:06:30.928Z,22.8
2022-10-07T01:08:47.760Z,22.4
2022-10-07T01:11:04.808Z,22.3
2022-10-07T01:13:21.694Z,22.6
2022-10-07T01:15:38.633Z,22.3
2022-10-07T01:17:55.578Z,22.4
2022-10-07T01:20:12.532Z,22.4
2022-10-07T01:22:14.293Z,22.3
2022-10-07T01:22:29.499Z,22.3
2022-10-07T01:24:46.389Z,22.4
2022-10-07T01:27:03.426Z,22.4
2022-10-07T01:29:20.406Z,22.3
2022-10-07T01:31:37.249Z,22.4
2022-10-07T01:33:54.114Z,22.1
2022-10-07T01:36:11.069Z,22.4
2022-10-07T01:38:28.093Z,22.4
2022-10-07T01:40:45.056Z,22.2
2022-10-07T01:43:02.000Z,22.4
2022-10-07T01:45:18.855Z,22.3
2022-10-07T01:47:35.107Z,22.2
2022-10-07T01:49:51.548Z,22.8
2022-10-07T01:52:08.675Z,22.4
2022-10-07T01:54:25.411Z,22.3
2022-10-07T01:56:42.375Z,22.4
2022-10-07T01:58:59.359Z,22.2
2022-10-07T02:01:16.331Z,22.3
2022-10-07T02:03:33.316Z,22.3
2022-10-07T02:05:49.455Z,22.3
2022-10-07T02:08:05.735Z,22.7
2022-10-07T02:10:22.712Z,22.4
2022-10-07T02:12:39.728Z,22.4
2022-10-07T02:14:56.903Z,22.4
2022-10-07T02:17:14.251Z,22.4
2022-10-07T02:19:30.650Z,22.3
2022-10-07T02:21:47.628Z,22.3
2022-10-07T02:24:04.535Z,22.5
2022-10-07T02:26:21.494Z,22.4
2022-10-07T02:28:38.570Z,22.4
2022-10-07T02:30:55.474Z,22.4
2022-10-07T02:33:12.455Z,22.3
2022-10-07T02:35:29.509Z,22.3
2022-10-07T02:37:46.965Z,22.2
2022-10-07T02:40:05.287Z,22.4
2022-10-07T02:42:20.352Z,22.3
2022-10-07T02:44:37.329Z,22.3
2022-10-07T02:46:54.320Z,22.3
2022-10-07T02:49:11.271Z,22.2
2022-10-07T02:51:28.274Z,22.3
2022-10-07T02:53:44.588Z,22.1
2022-10-07T02:56:00.210Z,22.8
2022-10-07T02:58:16.574Z,22.6
2022-10-07T03:00:33.707Z,22.3
2022-10-07T03:02:50.835Z,22.3
2022-10-07T03:05:07.889Z,22.3
2022-10-07T03:07:24.794Z,22.4
2022-10-07T03:09:41.854Z,22.3
2022-10-07T03:11:58.752Z,22.1
2022-10-07T03:14:15.852Z,22.2
2022-10-07T03:16:33.333Z,22.1
2022-10-07T03:18:49.114Z,22
2022-10-07T03:21:04.876Z,22.8
2022-10-07T03:23:21.520Z,22.5
2022-10-07T03:25:38.326Z,22.4
2022-10-07T03:27:55.472Z,22.4
2022-10-07T03:30:12.470Z,22.1
2022-10-07T03:32:29.449Z,22.4
2022-10-07T03:34:45.784Z,22.1
2022-10-07T03:37:01.584Z,22.7
2022-10-07T03:39:18.057Z,22.7
2022-10-07T03:41:34.750Z,22.3
2022-10-07T03:43:50.858Z,22.8
2022-10-07T03:46:07.038Z,22.6
2022-10-07T03:48:23.326Z,22.9
2022-10-07T03:50:39.935Z,22.9
2022-10-07T03:52:57.010Z,22.4
2022-10-07T03:55:13.615Z,22.4
2022-10-07T03:57:30.091Z,22.8
2022-10-07T03:59:47.144Z,22.4
2022-10-07T04:02:04.250Z,22.3
2022-10-07T04:04:21.153Z,22.3
2022-10-07T04:06:38.475Z,22.3
2022-10-07T04:08:54.797Z,22.3
2022-10-07T04:11:10.892Z,22.6
2022-10-07T04:13:28.032Z,22.1
2022-10-07T04:15:45.070Z,22.3
2022-10-07T04:18:02.019Z,22.4
2022-10-07T04:20:19.198Z,22.2
2022-10-07T04:22:36.300Z,22.1
2022-10-07T04:24:52.560Z,22.2
2022-10-07T04:27:08.866Z,22.8
2022-10-07T04:29:39.676Z,22.1
2022-10-07T04:31:56.764Z,22.3
2022-10-07T04:34:14.034Z,22.4
2022-10-07T04:36:30.949Z,22.3
2022-10-07T04:38:47.845Z,22.1
2022-10-07T04:41:18.905Z,22.3
2022-10-07T04:43:35.751Z,22.3
2022-10-07T04:45:52.780Z,22.3
2022-10-07T04:48:09.797Z,22.3
2022-10-07T04:50:26.815Z,22.2
2022-10-07T04:52:43.903Z,22.3
2022-10-07T04:55:00.943Z,22.3
2022-10-07T04:57:17.935Z,22.2
2022-10-07T04:59:36.455Z,22.3
2022-10-07T05:01:52.066Z,22.1
2022-10-07T05:04:08.933Z,22.1
2022-10-07T05:06:25.968Z,22.3
2022-10-07T05:08:43.029Z,22.3
2022-10-07T05:11:00.089Z,22.4
2022-10-07T05:13:16.989Z,22.3
2022-10-07T05:15:34.046Z,22.3
2022-10-07T05:17:50.414Z,22.3
2022-10-07T05:20:07.073Z,22.9
2022-10-07T05:22:23.803Z,22.5
2022-10-07T05:24:40.907Z,22.1
2022-10-07T05:26:57.901Z,22.2
2022-10-07T05:29:14.847Z,22.4
2022-10-07T05:31:31.317Z,22.4
2022-10-07T05:33:47.420Z,22.8
2022-10-07T05:36:04.440Z,22.5
2022-10-07T05:38:21.517Z,22.4
2022-10-07T05:40:37.914Z,22.5
2022-10-07T05:42:53.778Z,22.9
2022-10-07T05:45:10.593Z,22.4
2022-10-07T05:47:27.145Z,22.4
2022-10-07T05:49:44.312Z,22.5
2022-10-07T05:52:01.252Z,22.5
2022-10-07T05:54:18.259Z,22.3
2022-10-07T05:56:35.232Z,22.3
2022-10-07T05:58:52.166Z,22.4
2022-10-07T06:01:13.851Z,22.2
2022-10-07T06:03:25.435Z,22.5
2022-10-07T06:05:41.071Z,22.8
2022-10-07T06:07:56.929Z,22.8
2022-10-07T06:10:13.538Z,22.6
2022-10-07T06:12:30.603Z,22.6
2022-10-07T06:14:46.984Z,22.6
2022-10-07T06:17:03.272Z,22.8
2022-10-07T06:19:20.182Z,22.4
2022-10-07T06:21:22.017Z,22.4
2022-10-07T06:21:37.213Z,22.1
2022-10-07T06:23:54.062Z,22.1
2022-10-07T06:26:10.986Z,22.3
2022-10-07T06:28:27.986Z,22.4
2022-10-07T06:30:45.084Z,22.5
2022-10-07T06:33:01.676Z,22.4
2022-10-07T06:35:18.462Z,22.3
2022-10-07T06:37:35.175Z,22.3
2022-10-07T06:39:54.309Z,22.1
2022-10-07T06:42:08.668Z,22.3
2022-10-07T06:44:25.419Z,22.3
2022-10-07T06:46:42.107Z,22.6
2022-10-07T06:48:58.701Z,22.7
2022-10-07T06:51:15.387Z,22.4
2022-10-07T06:53:32.037Z,22.4
2022-10-07T06:55:48.562Z,22.3
2022-10-07T06:58:29.127Z,22.2
2022-10-07T07:00:45.617Z,22.2
2022-10-07T07:03:02.297Z,22.3
2022-10-07T07:05:17.949Z,22.4
2022-10-07T07:07:32.855Z,22.4
2022-10-07T07:09:48.888Z,22.6
2022-10-07T07:12:05.701Z,22.6
2022-10-07T07:14:23.332Z,22.7
2022-10-07T07:16:37.714Z,22.6
2022-10-07T07:18:55.062Z,22.5
2022-10-07T07:21:11.110Z,22.6
2022-10-07T07:23:27.094Z,22.7
2022-10-07T07:25:42.753Z,22.5
2022-10-07T07:27:59.380Z,22.8
2022-10-07T07:30:16.009Z,22.9
2022-10-07T07:32:32.314Z,22.8
2022-10-07T07:34:48.154Z,22.8
2022-10-07T07:37:02.986Z,22.6
2022-10-07T07:39:18.209Z,22.5
2022-10-07T07:41:33.986Z,22.8
2022-10-07T07:43:48.585Z,22.8
2022-10-07T07:46:03.612Z,22.9
2022-10-07T07:48:18.876Z,22.9
2022-10-07T07:50:34.083Z,23.1
2022-10-07T07:52:34.198Z,23
2022-10-07T07:52:48.580Z,22.9
2022-10-07T07:55:05.293Z,23.1
2022-10-07T07:57:21.674Z,22.3
2022-10-07T07:59:38.180Z,22.6
2022-10-07T08:01:54.256Z,22.3
2022-10-07T08:04:10.667Z,22.3
2022-10-07T08:06:26.762Z,22.3
2022-10-07T08:08:42.924Z,22.4
2022-10-07T08:10:58.377Z,22.4
2022-10-07T08:13:13.219Z,22.5
2022-10-07T08:15:28.653Z,22.7
2022-10-07T08:17:44.332Z,22.7
2022-10-07T08:19:59.754Z,22.4
2022-10-07T08:22:14.711Z,22.6
2022-10-07T08:24:29.872Z,22.8
2022-10-07T08:26:45.426Z,22.7
2022-10-07T08:29:00.157Z,23.1
2022-10-07T08:31:15.242Z,23
2022-10-07T08:33:30.542Z,23.1
2022-10-07T08:35:45.687Z,23
2022-10-07T08:37:46.371Z,23.1
2022-10-07T08:38:01.011Z,23
2022-10-07T08:40:16.190Z,23.1
2022-10-07T08:42:31.339Z,23.1
2022-10-07T08:44:46.756Z,23.3
2022-10-07T08:47:01.917Z,23.1
2022-10-07T08:49:17.298Z,23.1
2022-10-07T08:51:32.508Z,23.2
2022-10-07T08:53:48.059Z,23.2
2022-10-07T08:56:03.129Z,23.1
2022-10-07T08:58:18.287Z,23.2
2022-10-07T09:00:33.758Z,23.4
2022-10-07T09:02:49.119Z,23.3
2022-10-07T09:05:04.590Z,23.3
2022-10-07T09:07:19.809Z,23.3
2022-10-07T09:09:35.455Z,23.2
2022-10-07T09:11:50.904Z,23.5
2022-10-07T09:14:06.385Z,23.1
2022-10-07T09:16:06.724Z,23.1
2022-10-07T09:16:21.834Z,23.3
2022-10-07T09:18:37.430Z,23.1
2022-10-07T09:20:52.890Z,23.7
2022-10-07T09:23:08.325Z,23.3
2022-10-07T09:25:24.202Z,23.4
2022-10-07T09:27:39.648Z,23.3
2022-10-07T09:29:55.405Z,23.3
2022-10-07T09:32:10.935Z,23.1
2022-10-07T09:34:26.765Z,23.1
2022-10-07T09:36:42.372Z,23.1
2022-10-07T09:38:58.186Z,23.4
2022-10-07T09:41:13.853Z,23.3
2022-10-07T09:43:14.594Z,23.3
2022-10-07T09:43:29.756Z,23.7
2022-10-07T09:45:45.815Z,23.3
2022-10-07T09:48:01.064Z,22.9
2022-10-07T09:50:16.835Z,23.4
2022-10-07T09:52:32.328Z,23.2
2022-10-07T09:54:48.269Z,23.4
2022-10-07T09:57:04.323Z,23.3
2022-10-07T09:59:19.906Z,22.8
2022-10-07T10:01:35.644Z,23.2
2022-10-07T10:03:51.679Z,23.3
2022-10-07T10:06:07.455Z,23.8
2022-10-07T10:08:23.251Z,23.2
2022-10-07T10:10:39.212Z,23.2
2022-10-07T10:12:55.174Z,23.4
2022-10-07T10:15:11.141Z,23.2
2022-10-07T10:17:26.942Z,23.1
2022-10-07T10:19:42.916Z,23.1
2022-10-07T10:21:58.834Z,23.5
2022-10-07T10:24:14.964Z,23.3
2022-10-07T10:26:33.812Z,23.4
2022-10-07T10:28:46.655Z,23.2
2022-10-07T10:31:02.698Z,23
2022-10-07T10:33:18.556Z,23.3
2022-10-07T10:35:34.638Z,23
2022-10-07T10:37:50.522Z,23.1
2022-10-07T10:40:06.587Z,23.1
2022-10-07T10:42:22.732Z,23
2022-10-07T10:44:38.682Z,22.6
2022-10-07T10:46:54.451Z,23
2022-10-07T10:49:10.433Z,23.2
2022-10-07T10:51:26.356Z,23.8
2022-10-07T10:53:42.262Z,23.6
2022-10-07T10:55:58.373Z,23.1
2022-10-07T10:58:14.282Z,24
2022-10-07T11:00:31.027Z,23.1
2022-10-07T11:02:46.454Z,23.6
2022-10-07T11:05:02.461Z,23.4
2022-10-07T11:07:18.364Z,22.9
2022-10-07T11:09:34.380Z,23.1
2022-10-07T11:11:50.266Z,23.5
2022-10-07T11:14:06.162Z,23.4
2022-10-07T11:16:22.381Z,23.1
2022-10-07T11:18:38.125Z,23.1
2022-10-07T11:20:54.234Z,23.2
2022-10-07T11:23:10.112Z,23
2022-10-07T11:25:26.313Z,23.1
2022-10-07T11:27:42.440Z,23
2022-10-07T11:29:58.334Z,22.9
2022-10-07T11:32:14.325Z,22.9
2022-10-07T11:34:30.385Z,23.1
2022-10-07T11:36:46.287Z,23.6
2022-10-07T11:39:02.218Z,22.9
2022-10-07T11:41:18.426Z,22.9
2022-10-07T11:43:34.233Z,23.1
2022-10-07T11:45:50.327Z,23.4
2022-10-07T11:48:06.276Z,23.1
2022-10-07T11:50:22.279Z,23.4
2022-10-07T11:52:38.417Z,23.1
2022-10-07T11:54:54.378Z,23.3
2022-10-07T11:57:10.288Z,23.1
2022-10-07T11:59:26.240Z,22.9
2022-10-07T12:01:42.373Z,23.1
2022-10-07T12:03:58.320Z,23.1
2022-10-07T12:06:14.465Z,23.1
2022-10-07T12:08:30.340Z,23.1
2022-10-07T12:10:46.257Z,23.1
2022-10-07T12:13:02.455Z,23.3
2022-10-07T12:15:18.424Z,22.3
2022-10-07T12:17:34.289Z,23
2022-10-07T12:19:50.570Z,23.1
2022-10-07T12:22:06.377Z,23.6
2022-10-07T12:24:22.316Z,23.3
2022-10-07T12:26:38.457Z,23.3
2022-10-07T12:28:54.406Z,23.2
2022-10-07T12:31:10.701Z,23.1
2022-10-07T12:33:26.427Z,22.9
2022-10-07T12:35:42.675Z,23.1
2022-10-07T12:37:58.610Z,23.1
2022-10-07T12:40:14.819Z,22.9
2022-10-07T12:42:30.679Z,23.1
2022-10-07T12:44:46.558Z,23.3
2022-10-07T12:47:02.689Z,23.2
2022-10-07T12:49:18.538Z,23.2
2022-10-07T12:51:34.849Z,23.1
2022-10-07T12:53:35.473Z,23
2022-10-07T12:53:51.150Z,22.9
2022-10-07T12:56:06.880Z,23.4
2022-10-07T12:58:23.055Z,23.1
2022-10-07T13:00:38.989Z,22.6
2022-10-07T13:02:54.889Z,23.2
2022-10-07T13:05:11.030Z,23.1
2022-10-07T13:07:26.975Z,23.6
2022-10-07T13:09:42.947Z,22.9
2022-10-07T13:11:58.933Z,23.1
2022-10-07T13:14:14.895Z,23.2
2022-10-07T13:16:31.092Z,23.1
2022-10-07T13:18:46.930Z,22.9
2022-10-07T13:21:03.087Z,23.1
2022-10-07T13:23:22.088Z,22.9
2022-10-07T13:25:35.193Z,23.1
2022-10-07T13:27:51.172Z,23.1
2022-10-07T13:30:07.078Z,22.9
2022-10-07T13:32:23.331Z,23.1
2022-10-07T13:34:39.163Z,22.9
2022-10-07T13:36:55.493Z,22.9
2022-10-07T13:39:11.482Z,22.9
2022-10-07T13:41:27.360Z,22.9
2022-10-07T13:43:43.601Z,23.1
2022-10-07T13:45:59.604Z,22.6
2022-10-07T13:48:15.452Z,22.9
2022-10-07T13:50:31.752Z,23.1
2022-10-07T13:52:47.954Z,23.7
2022-10-07T13:55:03.742Z,23.2
2022-10-07T13:57:21.327Z,22.9
2022-10-07T13:59:35.797Z,22.9
2022-10-07T14:01:51.937Z,23
2022-10-07T14:04:07.892Z,23
2022-10-07T14:06:24.088Z,23.1
2022-10-07T14:08:40.031Z,22.9
2022-10-07T14:10:56.266Z,23.1
2022-10-07T14:13:12.163Z,23.1
2022-10-07T14:15:28.175Z,22.8
2022-10-07T14:17:44.369Z,22.9
2022-10-07T14:20:00.295Z,22.9
2022-10-07T14:22:16.475Z,23.1
2022-10-07T14:24:32.514Z,22.9
2022-10-07T14:26:48.718Z,22.8
2022-10-07T14:29:04.885Z,22.8
2022-10-07T14:31:20.809Z,22.6
2022-10-07T14:33:36.586Z,22.9
2022-10-07T14:35:52.957Z,22.7
2022-10-07T14:38:08.885Z,23.6
2022-10-07T14:40:25.147Z,22.9
2022-10-07T14:42:41.531Z,23.7
2022-10-07T14:44:57.076Z,23
2022-10-07T14:47:13.318Z,22.9
2022-10-07T14:49:29.240Z,23.3
2022-10-07T14:51:44.914Z,22.9
2022-10-07T14:54:01.150Z,23.3
2022-10-07T14:56:17.135Z,23.2
2022-10-07T14:58:33.095Z,23
2022-10-07T15:00:48.938Z,22.8
2022-10-07T15:03:05.021Z,22.8
2022-10-07T15:05:20.908Z,23
2022-10-07T15:07:21.714Z,22.9
2022-10-07T15:07:36.857Z,23.2
2022-10-07T15:09:52.886Z,22.9
2022-10-07T15:12:08.829Z,22.8
2022-10-07T15:14:24.974Z,22.6
2022-10-07T15:16:41.030Z,22.9
2022-10-07T15:18:56.877Z,22.5
2022-10-07T15:21:12.967Z,22.8
2022-10-07T15:23:29.016Z,22.6
2022-10-07T15:25:44.778Z,22.8
2022-10-07T15:28:01.658Z,22.6
2022-10-07T15:30:17.506Z,22.3
2022-10-07T15:32:33.468Z,22.7
2022-10-07T15:34:50.133Z,22.4
2022-10-07T15:37:06.980Z,22.4
2022-10-07T15:39:23.519Z,22.4
2022-10-07T15:41:40.236Z,22.4
2022-10-07T15:43:56.786Z,22.1
2022-10-07T15:46:13.345Z,22.1
2022-10-07T15:48:30.086Z,22.2
2022-10-07T15:50:46.720Z,22.1
2022-10-07T15:53:03.417Z,22.3
2022-10-07T15:55:19.912Z,22.3
2022-10-07T15:57:36.676Z,22.3
2022-10-07T15:59:53.741Z,22.4
2022-10-07T16:02:13.956Z,22.3
2022-10-07T16:04:26.593Z,22.3
2022-10-07T16:06:43.391Z,22.2
2022-10-07T16:08:59.991Z,22.3
2022-10-07T16:11:15.890Z,22.3
2022-10-07T16:13:32.095Z,22.8
2022-10-07T16:15:48.181Z,22.4
2022-10-07T16:18:03.788Z,22.9
2022-10-07T16:20:20.209Z,23.1
2022-10-07T16:22:37.208Z,22.4
2022-10-07T16:24:53.973Z,22.4
2022-10-07T16:27:11.189Z,22.4
2022-10-07T16:29:27.953Z,22.4
2022-10-07T16:31:44.718Z,22.5
2022-10-07T16:34:01.707Z,22.4
2022-10-07T16:36:18.529Z,22.6
2022-10-07T16:38:35.554Z,22.3
2022-10-07T16:40:52.365Z,22.4
2022-10-07T16:43:09.312Z,22.4
2022-10-07T16:45:26.395Z,22.4
2022-10-07T16:47:43.534Z,22.4
2022-10-07T16:50:00.056Z,22.4
2022-10-07T16:52:17.083Z,22.6
2022-10-07T16:54:33.992Z,22.3
2022-10-07T16:56:50.695Z,22.5
2022-10-07T16:59:06.955Z,22.6
2022-10-07T17:01:22.949Z,22.8
2022-10-07T17:03:40.081Z,22.6
2022-10-07T17:05:56.993Z,22.6
2022-10-07T17:08:13.315Z,22.4
2022-10-07T17:10:28.699Z,22.8
2022-10-07T17:12:45.136Z,23.2
2022-10-07T17:15:02.221Z,22.4
2022-10-07T17:17:19.044Z,22.4
2022-10-07T17:19:36.086Z,22.3
2022-10-07T17:21:52.981Z,22.5
2022-10-07T17:24:10.175Z,22.4
2022-10-07T17:26:12.248Z,22.4
2022-10-07T17:26:26.913Z,22.2
2022-10-07T17:28:44.048Z,22.6
2022-10-07T17:31:01.152Z,22.3
2022-10-07T17:33:18.019Z,22.6
2022-10-07T17:35:34.727Z,22.3
2022-10-07T17:37:51.869Z,22.3
2022-10-07T17:40:08.679Z,22.3
2022-10-07T17:42:25.427Z,22.3
2022-10-07T17:44:41.826Z,22.3
2022-10-07T17:46:57.755Z,22.8
2022-10-07T17:49:14.913Z,22.4
2022-10-07T17:51:31.804Z,22.3
2022-10-07T17:53:48.982Z,22.3
2022-10-07T17:56:05.828Z,22.5
2022-10-07T17:58:22.948Z,22.5
2022-10-07T18:00:39.721Z,22.3
2022-10-07T18:02:56.545Z,22.3
2022-10-07T18:05:13.584Z,22.5
2022-10-07T18:07:30.502Z,22.4
2022-10-07T18:09:47.647Z,22.3
2022-10-07T18:12:04.306Z,22.3
2022-10-07T18:14:21.440Z,22.3
2022-10-07T18:16:38.558Z,22.4
2022-10-07T18:18:55.383Z,22.4
2022-10-07T18:21:12.268Z,22.4
2022-10-07T18:23:29.478Z,22.3
2022-10-07T18:25:46.239Z,22.4
2022-10-07T18:28:03.148Z,22.4
2022-10-07T18:30:20.202Z,22.3
2022-10-07T18:32:36.296Z,22.3
2022-10-07T18:34:36.893Z,22.6
2022-10-07T18:34:51.981Z,22.7
2022-10-07T18:37:08.254Z,22.9
2022-10-07T18:39:25.557Z,22.5
2022-10-07T18:41:42.468Z,22.6
2022-10-07T18:43:59.665Z,22.6
2022-10-07T18:46:16.657Z,22.4
2022-10-07T18:48:32.622Z,22.6
2022-10-07T18:50:48.356Z,22.8
2022-10-07T18:53:04.731Z,23.1
2022-10-07T18:55:22.090Z,22.4
2022-10-07T18:57:39.011Z,22.4
2022-10-07T18:59:56.159Z,22.4
2022-10-07T19:02:14.324Z,22.4
2022-10-07T19:04:30.369Z,22.4
2022-10-07T19:06:47.186Z,22.4
2022-10-07T19:09:04.240Z,22.6
2022-10-07T19:11:21.132Z,22.3
2022-10-07T19:13:38.044Z,22.3
2022-10-07T19:15:55.228Z,22.4
2022-10-07T19:18:12.126Z,22.5
2022-10-07T19:20:29.178Z,22.4
2022-10-07T19:22:46.352Z,22.6
2022-10-07T19:25:03.229Z,22.6
2022-10-07T19:27:20.172Z,22.3
2022-10-07T19:29:37.289Z,22.3
2022-10-07T19:31:54.278Z,22.4
2022-10-07T19:34:11.130Z,22.4
2022-10-07T19:36:28.191Z,22.4
2022-10-07T19:38:45.192Z,22.3
2022-10-07T19:41:02.332Z,22.4
2022-10-07T19:43:19.305Z,22.3
2022-10-07T19:45:36.446Z,22.6
2022-10-07T19:47:52.548Z,22.3
2022-10-07T19:50:08.965Z,22.9
2022-10-07T19:52:25.919Z,22.4
2022-10-07T19:54:43.191Z,22.3
2022-10-07T19:57:00.031Z,22.2
2022-10-07T19:59:17.049Z,22.4
2022-10-07T20:01:34.501Z,22.4
2022-10-07T20:03:51.214Z,22.4
2022-10-07T20:06:08.269Z,22.4
2022-10-07T20:08:25.487Z,22.4
2022-10-07T20:10:42.316Z,22.5
2022-10-07T20:12:58.490Z,22.4
2022-10-07T20:15:14.880Z,22.9
2022-10-07T20:17:31.934Z,22.4
2022-10-07T20:19:48.759Z,22.3
2022-10-07T20:22:06.131Z,22.2
2022-10-07T20:24:23.034Z,22.4
2022-10-07T20:26:40.131Z,22.6
2022-10-07T20:28:57.092Z,22.3
2022-10-07T20:31:13.474Z,22.4
2022-10-07T20:33:29.637Z,22.8
2022-10-07T20:35:46.909Z,22.6
2022-10-07T20:38:03.888Z,22.5
2022-10-07T20:40:20.392Z,22.4
2022-10-07T20:42:35.975Z,22.9
2022-10-07T20:44:52.312Z,23
2022-10-07T20:47:09.674Z,22.7
2022-10-07T20:49:26.797Z,22.6
2022-10-07T20:51:43.874Z,22.4
2022-10-07T20:54:01.142Z,22.4
2022-10-07T20:56:18.014Z,22.3
2022-10-07T20:58:34.973Z,22.3
2022-10-07T21:00:52.202Z,22.3
2022-10-07T21:03:09.139Z,22.4
2022-10-07T21:05:26.095Z,22.4
2022-10-07T21:07:43.292Z,22.3
2022-10-07T21:10:00.121Z,22.4
2022-10-07T21:12:16.556Z,22.3
2022-10-07T21:14:32.748Z,22.9
2022-10-07T21:16:50.139Z,22.8
2022-10-07T21:19:07.059Z,22.4
2022-10-07T21:21:23.482Z,22.5
2022-10-07T21:23:39.683Z,23
2022-10-07T21:25:56.927Z,22.6
2022-10-07T21:28:13.884Z,22.7
2022-10-07T21:30:31.024Z,22.3
2022-10-07T21:32:48.966Z,22.4
2022-10-07T21:35:04.998Z,22.4
2022-10-07T21:37:22.253Z,22.5
2022-10-07T21:39:38.711Z,22.7
2022-10-07T21:41:55.031Z,22.9
2022-10-07T21:44:11.944Z,22.6
2022-10-07T21:46:29.474Z,22.5
2022-10-07T21:48:46.141Z,22.5
2022-10-07T21:51:07.170Z,22.4
2022-10-07T21:53:20.585Z,22.5
2022-10-07T21:55:37.394Z,22.3
2022-10-07T21:57:54.712Z,22.4
2022-10-07T22:00:11.695Z,22.3
2022-10-07T22:02:28.864Z,22.6
2022-10-07T22:06:18.927Z,22.5
2022-10-07T22:08:35.836Z,22.5
2022-10-07T22:10:52.794Z,22.5
2022-10-07T22:13:09.765Z,22.5
2022-10-07T22:15:26.747Z,22.4
2022-10-07T22:17:43.647Z,22.4
2022-10-07T22:20:00.645Z,22.4
2022-10-07T22:22:17.591Z,22.6
2022-10-07T22:24:19.341Z,22.4
2022-10-07T22:24:34.538Z,22.1
2022-10-07T22:26:51.410Z,22.7
2022-10-07T22:29:08.371Z,22.4
2022-10-07T22:31:25.372Z,22.4
2022-10-07T22:33:42.309Z,22.4
2022-10-07T22:35:58.508Z,22.4
2022-10-07T22:38:14.833Z,22.8
2022-10-07T22:40:32.035Z,22.5
2022-10-07T22:42:48.448Z,22.5
2022-10-07T22:45:03.914Z,22.9
2022-10-07T22:47:19.893Z,22.6
2022-10-07T22:49:36.051Z,22.9
2022-10-07T22:51:52.611Z,23.2
2022-10-07T22:54:09.788Z,22.6
2022-10-07T22:56:26.871Z,22.6
2022-10-07T22:58:43.873Z,22.3
2022-10-07T23:01:00.842Z,22.5
2022-10-07T23:03:18.433Z,22.5
2022-10-07T23:05:34.759Z,22.6
2022-10-07T23:07:51.869Z,22.3
2022-10-07T23:10:08.729Z,22.2
2022-10-07T23:12:25.801Z,22.4
2022-10-07T23:14:42.781Z,22.3
2022-10-07T23:16:59.678Z,22.3
2022-10-07T23:19:16.587Z,22.4
2022-10-07T23:21:33.609Z,22.3
2022-10-07T23:23:50.551Z,22.4
2022-10-07T23:26:07.850Z,22.3
2022-10-07T23:28:24.711Z,22.3
2022-10-07T23:30:25.764Z,22.4
2022-10-07T23:30:40.958Z,22.6
2022-10-07T23:32:57.038Z,22.9
2022-10-07T23:35:14.066Z,22.6
2022-10-07T23:37:31.121Z,22.5
2022-10-07T23:39:48.119Z,22.4
2022-10-07T23:42:05.119Z,22.4
2022-10-07T23:44:22.067Z,22.1
2022-10-07T23:46:39.034Z,22.3
2022-10-07T23:48:55.965Z,22.3
2022-10-07T23:51:12.226Z,22.4
2022-10-07T23:53:28.637Z,23
2022-10-07T23:55:45.114Z,22.5
2022-10-07T23:58:00.943Z,22.9
